Ora Direzione Vento Velocita' Vento Media Vento Raffica Max. Temperatura Wind Chill Pioggia Pressione
02:41:42.0135 °(SE)2.7 Kts1.9 Kts5.3 Kts10.9 °C10.9 °C0.0 mm1023.5 Hpa
02:21:32.0135 °(SE)3.3 Kts1.9 Kts5.3 Kts10.9 °C10.9 °C0.0 mm1023.7 Hpa
02:01:20.045 °(NE)1.9 Kts0.6 Kts5.3 Kts10.6 °C10.6 °C0.0 mm1023.7 Hpa
01:41:10.090 °(E)2.7 Kts1.4 Kts5.3 Kts10.8 °C10.8 °C0.0 mm1023.9 Hpa
01:20:59.045 °(NE)3.3 Kts1.9 Kts5.3 Kts10.8 °C10.8 °C0.0 mm1023.8 Hpa
01:00:46.0135 °(SE)2.7 Kts1.9 Kts5.0 Kts10.6 °C10.6 °C0.0 mm1023.8 Hpa
00:40:35.0135 °(SE)1.9 Kts0.6 Kts5.0 Kts10.7 °C10.7 °C0.0 mm1023.9 Hpa
00:21:35.00 °(N)3.3 Kts1.4 Kts5.0 Kts10.7 °C10.7 °C0.0 mm1023.7 Hpa
00:01:27.0135 °(SE)1.9 Kts1.4 Kts3.0 Kts10.8 °C10.8 °C0.0 mm1023.9 Hpa
23:41:14.0135 °(SE)1.4 Kts0.0 Kts20.0 Kts10.9 °C10.9 °C0.0 mm1023.9 Hpa
23:21:08.0180 °(S)1.9 Kts0.6 Kts20.0 Kts11.1 °C11.1 °C0.0 mm1023.8 Hpa
23:01:05.0135 °(SE)1.9 Kts0.6 Kts20.0 Kts11.2 °C11.2 °C0.0 mm1023.7 Hpa
22:40:55.0270 °(W)3.9 Kts2.7 Kts20.0 Kts12.1 °C12.1 °C0.0 mm1023.7 Hpa
22:20:51.0315 °(NW)8.0 Kts6.6 Kts20.0 Kts12.2 °C12.2 °C0.0 mm1023.6 Hpa
22:00:42.00 °(N)5.3 Kts3.3 Kts20.0 Kts11.9 °C11.9 °C0.0 mm1023.7 Hpa
21:41:42.0315 °(NW)8.0 Kts6.6 Kts20.0 Kts12.4 °C12.4 °C0.0 mm1023.7 Hpa
21:21:40.0270 °(W)8.6 Kts8.0 Kts20.0 Kts12.4 °C12.4 °C0.0 mm1023.6 Hpa
21:01:27.0270 °(W)8.6 Kts7.2 Kts20.0 Kts12.4 °C12.4 °C0.0 mm1023.6 Hpa
20:41:19.0270 °(W)7.2 Kts6.6 Kts20.0 Kts11.9 °C11.9 °C0.0 mm1023.5 Hpa
20:21:19.00 °(N)2.7 Kts1.4 Kts20.0 Kts11.9 °C11.9 °C0.0 mm1023.6 Hpa